East Freedom, Pennsylvania
Current Conditions -  °F | °C
As of 9:53 AM on Friday 19 Dec 2014 (Local Time) from KAOO Reporting Station
Overcast Overcast  
Wind Chill: 20°   Ceiling: 1700
Heat Index: 30°   Visibility: 10mi
Dew Point: 24°   Wind: 14mph
Humidity: 79%   Direction: 320°NW
Pressure: 30.13"   Gusts: NA
Location:  40.36°N, 78.43°W
Report Text: KAOO 191453Z AUTO 32012KT 10SM BKN017 OVC022 M01/M04 A3013 RMK AO2 SLP222 T10111044 51017
Loading
Personal Weather Stations






























Interactive Weather Map New forecast layout! Learn more

10-Day Weather Forecast

Advertisements
Track Severe Weather on mobile